Time;durP1;ratioP1;P1;durP2;ratioP2;P2;SDS_P1;SDS_P2;PMS_P1;PMS_P2;Temp;Humidity;BMP_temperature;BMP_pressure;BME280_temperature;BME280_humidity;BME280_pressure;Samples;Min_cycle;Max_cycle;Signal;HPM_P1;HPM_P2
2022/01/16 00:00:40;;;;;;;88.28;42.72;;;;;;;4.96;100.00;102289.38;5083639;28;20390;-72
2022/01/16 00:05:54;;;;;;;96.03;44.05;;;;;;;5.01;100.00;102288.75;5085000;28;20109;-72
2022/01/16 00:08:19;;;;;;;98.63;44.47;;;;;;;5.06;100.00;102280.81;5106959;28;20032;-71
2022/01/16 00:10:44;;;;;;;106.40;46.00;;;;;;;5.07;100.00;102284.38;5105242;28;20050;-72
2022/01/16 00:13:10;;;;;;;114.97;48.22;;;;;;;5.07;100.00;102304.22;5088764;28;20380;-72
2022/01/16 00:15:36;;;;;;;112.50;47.75;;;;;;;5.07;100.00;102292.53;5105676;28;20028;-72
2022/01/16 00:20:31;;;;;;;109.85;47.28;;;;;;;5.19;100.00;102284.56;5084645;28;20081;-72
2022/01/16 00:22:58;;;;;;;116.68;49.40;;;;;;;4.93;100.00;102278.09;5084882;28;20224;-71
2022/01/16 00:25:23;;;;;;;114.85;49.80;;;;;;;5.11;100.00;102280.19;5086810;28;20027;-72
2022/01/16 00:27:50;;;;;;;102.45;47.70;;;;;;;5.18;100.00;102274.72;5101937;28;20034;-71
2022/01/16 00:30:16;;;;;;;107.20;46.72;;;;;;;5.29;100.00;102279.53;5088707;28;20035;-73
2022/01/16 00:32:42;;;;;;;107.63;46.70;;;;;;;5.20;100.00;102273.47;5105308;28;20537;-72
2022/01/16 00:35:08;;;;;;;107.93;49.38;;;;;;;5.12;100.00;102279.97;5102914;28;20047;-72
2022/01/16 00:37:33;;;;;;;109.40;48.22;;;;;;;5.28;100.00;102286.00;5106832;28;20034;-72
2022/01/16 00:39:58;;;;;;;114.55;48.17;;;;;;;5.44;100.00;102274.69;5107796;28;20042;-71
2022/01/16 00:42:24;;;;;;;117.07;49.20;;;;;;;5.47;100.00;102276.97;5105799;28;20149;-72
2022/01/16 00:44:49;;;;;;;108.38;47.28;;;;;;;5.37;100.00;102276.59;5105980;28;21109;-73
2022/01/16 00:47:15;;;;;;;119.60;49.40;;;;;;;5.46;100.00;102288.94;5102986;28;20527;-73
2022/01/16 00:49:41;;;;;;;114.57;49.03;;;;;;;5.14;100.00;102283.31;5103598;28;20189;-72
2022/01/16 00:52:08;;;;;;;112.35;49.22;;;;;;;5.36;100.00;102280.34;5088228;28;20537;-72
2022/01/16 00:54:34;;;;;;;122.88;50.47;;;;;;;5.37;100.00;102268.44;5107656;28;20163;-72
2022/01/16 00:56:59;;;;;;;118.78;49.65;;;;;;;5.45;100.00;102251.06;5107559;28;20152;-71
2022/01/16 00:59:24;;;;;;;118.10;50.38;;;;;;;5.28;100.00;102266.97;5090922;28;20035;-72
2022/01/16 01:01:50;;;;;;;116.97;51.47;;;;;;;5.15;100.00;102243.38;5106591;28;20172;-71
2022/01/16 01:04:16;;;;;;;116.32;50.00;;;;;;;5.32;100.00;102230.16;5101860;28;20282;-72
2022/01/16 01:06:41;;;;;;;114.65;48.70;;;;;;;5.09;100.00;102231.44;5109886;28;20024;-72
2022/01/16 01:09:07;;;;;;;109.03;45.70;;;;;;;5.36;100.00;102242.25;5114260;28;20108;-72
2022/01/16 01:11:33;;;;;;;123.47;49.40;;;;;;;5.40;100.00;102259.03;5116214;28;20126;-71
2022/01/16 01:16:38;;;;;;;122.93;51.50;;;;;;;5.42;100.00;102273.22;5114000;28;20024;-72
2022/01/16 01:19:03;;;;;;;126.05;49.03;;;;;;;5.45;100.00;102261.94;5112700;28;20024;-72
2022/01/16 01:21:29;;;;;;;132.40;52.20;;;;;;;5.33;100.00;102264.47;5110187;28;20027;-73
2022/01/16 01:23:57;;;;;;;128.77;50.90;;;;;;;5.38;100.00;102251.06;5114002;28;20455;-71
2022/01/16 01:26:31;;;;;;;125.22;49.55;;;;;;;5.42;100.00;102254.19;5120299;28;20027;-71
2022/01/16 01:28:57;;;;;;;116.32;47.70;;;;;;;5.41;100.00;102252.50;5100620;28;20047;-72
2022/01/16 01:31:25;;;;;;;138.20;52.42;;;;;;;5.29;100.00;102263.22;5089876;28;20031;-72
2022/01/16 01:33:51;;;;;;;122.45;50.08;;;;;;;5.28;100.00;102272.41;5090830;28;20055;-72
2022/01/16 01:36:16;;;;;;;124.13;50.58;;;;;;;5.32;100.00;102271.78;5106776;28;20131;-72
2022/01/16 01:38:42;;;;;;;122.65;51.20;;;;;;;5.43;100.00;102275.75;5088407;28;20028;-72
2022/01/16 01:41:07;;;;;;;117.18;49.85;;;;;;;5.49;100.00;102241.41;5104082;28;20040;-72
2022/01/16 01:51:42;;;;;;;123.65;48.67;;;;;;;5.46;100.00;102191.00;5105020;28;20034;-72
2022/01/16 01:54:08;;;;;;;112.88;46.95;;;;;;;5.59;100.00;102208.31;5105014;27;20028;-73
2022/01/16 01:56:35;;;;;;;109.03;48.28;;;;;;;5.62;100.00;102232.38;5106208;28;20023;-72
2022/01/16 01:59:01;;;;;;;103.30;48.03;;;;;;;5.62;100.00;102237.81;5102646;28;20032;-72
2022/01/16 02:01:28;;;;;;;108.13;48.85;;;;;;;5.53;100.00;102240.75;5085667;28;21178;-73
2022/01/16 02:03:54;;;;;;;106.03;45.38;;;;;;;5.60;100.00;102267.13;5103846;28;20031;-72
2022/01/16 02:06:25;;;;;;;99.78;47.72;;;;;;;5.55;100.00;102250.59;5103724;28;20550;-73
2022/01/16 02:08:54;;;;;;;96.07;45.38;;;;;;;5.69;100.00;102265.84;5105930;28;20032;-73
2022/01/16 02:11:24;;;;;;;103.22;47.58;;;;;;;5.75;100.00;102278.56;5105275;28;20619;-72
2022/01/16 02:14:02;;;;;;;91.25;47.15;;;;;;;5.82;100.00;102268.53;5106257;28;20453;-72
2022/01/16 02:28:03;;;;;;;95.00;45.08;;;;;;;5.76;100.00;102257.66;5090000;28;20082;-73
2022/01/16 02:35:44;;;;;;;87.95;44.88;;;;;;;5.75;100.00;102273.13;5082367;28;20027;-72
2022/01/16 02:38:11;;;;;;;82.28;44.28;;;;;;;5.79;100.00;102273.53;5084308;28;20467;-73
2022/01/16 02:40:41;;;;;;;82.93;44.47;;;;;;;5.75;100.00;102272.31;5084486;28;20036;-72
2022/01/16 02:43:06;;;;;;;82.70;43.95;;;;;;;5.60;100.00;102256.25;5085092;28;20490;-71
2022/01/16 02:45:34;;;;;;;73.80;40.45;;;;;;;5.63;100.00;102256.63;5103809;28;20149;-73
2022/01/16 02:48:05;;;;;;;62.42;35.53;;;;;;;5.74;100.00;102252.44;5102413;28;20552;-71
2022/01/16 02:50:32;;;;;;;45.10;26.60;;;;;;;5.71;100.00;102256.41;5096334;28;20463;-72
2022/01/16 02:52:58;;;;;;;38.22;22.70;;;;;;;5.85;100.00;102250.91;5083626;28;20077;-72
2022/01/16 02:55:24;;;;;;;29.25;17.52;;;;;;;5.80;100.00;102248.00;5083500;28;20258;-72
2022/01/16 02:57:52;;;;;;;24.73;18.05;;;;;;;6.06;100.00;102241.63;5066137;28;20080;-72
2022/01/16 03:00:17;;;;;;;30.70;18.67;;;;;;;6.15;100.00;102231.31;5082017;28;20036;-72
2022/01/16 03:02:43;;;;;;;30.73;20.17;;;;;;;6.25;100.00;102226.25;5081133;28;20032;-73
2022/01/16 03:05:08;;;;;;;27.05;17.73;;;;;;;6.10;100.00;102220.25;5088465;28;20473;-72
2022/01/16 03:07:34;;;;;;;26.40;17.45;;;;;;;6.28;100.00;102216.78;5103693;28;20027;-72
2022/01/16 03:10:22;;;;;;;26.25;17.88;;;;;;;6.39;100.00;102213.34;5086447;28;20054;-72
2022/01/16 03:12:49;;;;;;;28.38;16.40;;;;;;;6.23;100.00;102212.84;5104272;28;20035;-72
2022/01/16 03:15:15;;;;;;;24.05;15.70;;;;;;;6.33;100.00;102209.63;5083425;28;20081;-72
2022/01/16 03:21:53;;;;;;;20.60;14.93;;;;;;;6.39;100.00;102216.06;5080047;28;20479;-73
2022/01/16 03:23:15;;;;;;;21.08;13.55;;;;;;;6.48;100.00;102194.84;5084565;28;20087;-72
2022/01/16 03:25:41;;;;;;;19.08;13.50;;;;;;;6.52;100.00;102194.19;5085868;28;20409;-73
2022/01/16 03:28:07;;;;;;;25.77;13.88;;;;;;;6.52;100.00;102196.06;5081580;28;20507;-72
2022/01/16 03:30:33;;;;;;;24.58;14.40;;;;;;;6.34;100.00;102192.22;5075166;28;20079;-72
2022/01/16 03:32:59;;;;;;;20.88;13.65;;;;;;;6.47;100.00;102198.63;5100198;28;20052;-72
2022/01/16 03:35:24;;;;;;;19.08;12.30;;;;;;;6.59;100.00;102185.94;5100455;28;20042;-72
2022/01/16 03:37:49;;;;;;;21.08;11.75;;;;;;;6.39;100.00;102192.38;5103910;28;20126;-72
2022/01/16 03:40:20;;;;;;;18.30;12.02;;;;;;;6.66;100.00;102191.34;5104386;28;20138;-72
2022/01/16 03:42:46;;;;;;;17.85;11.98;;;;;;;6.47;100.00;102188.56;5105320;28;20107;-72
2022/01/16 03:45:11;;;;;;;20.17;11.00;;;;;;;6.71;100.00;102177.91;5103649;28;20468;-72
2022/01/16 03:47:37;;;;;;;18.17;10.90;;;;;;;6.61;100.00;102186.59;5103956;28;20283;-72
2022/01/16 03:50:04;;;;;;;15.75;10.05;;;;;;;6.81;100.00;102184.50;5074461;28;20047;-72
2022/01/16 03:52:30;;;;;;;15.95;10.70;;;;;;;6.77;100.00;102185.16;5088121;28;20232;-72
2022/01/16 03:54:55;;;;;;;20.98;11.15;;;;;;;6.78;100.00;102190.38;5089013;28;20054;-72
2022/01/16 03:57:21;;;;;;;18.90;11.02;;;;;;;6.74;100.00;102186.47;5099922;28;20085;-72
2022/01/16 03:59:46;;;;;;;18.55;10.82;;;;;;;6.81;100.00;102192.66;5068978;28;20036;-72
2022/01/16 04:02:12;;;;;;;16.73;11.15;;;;;;;6.91;100.00;102186.72;5103168;28;20077;-71
2022/01/16 04:04:38;;;;;;;19.42;10.10;;;;;;;6.84;100.00;102183.22;5067382;28;20034;-74
2022/01/16 04:07:06;;;;;;;18.63;10.75;;;;;;;6.95;100.00;102190.69;5085826;28;20561;-73
2022/01/16 04:09:32;;;;;;;19.90;10.57;;;;;;;6.96;100.00;102188.78;5083518;28;20024;-72
2022/01/16 04:11:58;;;;;;;17.65;10.82;;;;;;;7.15;100.00;102176.81;5086615;28;20085;-72
2022/01/16 04:17:18;;;;;;;15.07;9.70;;;;;;;7.19;100.00;102177.19;5084977;28;20508;-72
2022/01/16 04:19:45;;;;;;;17.30;10.50;;;;;;;7.10;100.00;102178.53;5096030;28;20031;-72
2022/01/16 04:22:12;;;;;;;21.02;9.82;;;;;;;7.14;100.00;102182.50;5107592;28;20229;-72
2022/01/16 04:24:37;;;;;;;15.70;9.52;;;;;;;7.28;100.00;102175.84;5105837;28;20499;-72
2022/01/16 04:27:03;;;;;;;24.63;9.95;;;;;;;7.24;100.00;102190.16;5105699;28;20063;-72
2022/01/16 04:29:29;;;;;;;18.25;8.52;;;;;;;7.09;100.00;102182.34;5105544;27;20034;-72
2022/01/16 04:31:55;;;;;;;18.48;8.88;;;;;;;7.20;100.00;102187.06;5088177;28;20035;-72
2022/01/16 04:34:23;;;;;;;17.45;8.43;;;;;;;7.42;100.00;102181.97;5101717;28;20032;-72
2022/01/16 04:36:49;;;;;;;15.57;8.15;;;;;;;7.48;100.00;102177.50;5083434;28;20152;-73
2022/01/16 04:39:20;;;;;;;19.52;7.78;;;;;;;7.32;100.00;102181.69;5087000;28;20281;-72
2022/01/16 04:44:30;;;;;;;15.15;7.03;;;;;;;7.41;100.00;102169.41;5093767;28;20115;-72
2022/01/16 04:46:56;;;;;;;15.45;7.25;;;;;;;7.30;100.00;102171.00;5082496;28;20333;-72
2022/01/16 04:49:21;;;;;;;17.00;7.03;;;;;;;7.29;100.00;102168.50;5084006;28;20027;-72
2022/01/16 04:51:47;;;;;;;16.88;6.72;;;;;;;7.41;100.00;102171.28;5085720;28;20055;-73
2022/01/16 04:54:13;;;;;;;16.17;7.22;;;;;;;7.45;100.00;102177.97;5085940;28;20515;-73
2022/01/16 04:56:39;;;;;;;17.02;6.07;;;;;;;7.39;100.00;102165.22;5048997;28;20041;-72
2022/01/16 04:59:05;;;;;;;10.55;5.47;;;;;;;7.43;100.00;102166.41;5091303;28;20076;-72
2022/01/16 05:01:30;;;;;;;17.10;6.85;;;;;;;7.40;100.00;102167.72;5102580;28;20389;-72
2022/01/16 05:03:56;;;;;;;13.73;6.13;;;;;;;7.52;100.00;102175.97;5105334;28;20063;-72
2022/01/16 05:06:21;;;;;;;14.00;5.90;;;;;;;7.53;100.00;102173.03;5093284;28;20040;-73
2022/01/16 05:08:47;;;;;;;15.15;6.32;;;;;;;7.36;100.00;102167.34;5085736;28;20040;-73
2022/01/16 05:11:15;;;;;;;13.65;5.68;;;;;;;7.42;100.00;102173.78;5084952;28;20040;-73
2022/01/16 05:18:52;;;;;;;12.63;5.80;;;;;;;7.54;100.00;102173.84;5094745;28;20042;-73
2022/01/16 05:21:18;;;;;;;13.98;5.55;;;;;;;7.63;100.00;102161.56;5086982;28;20027;-72
2022/01/16 05:23:43;;;;;;;15.65;4.97;;;;;;;7.71;100.00;102160.41;5104345;28;20047;-73
2022/01/16 05:26:14;;;;;;;16.65;4.93;;;;;;;7.46;100.00;102163.25;5105460;28;20042;-74
2022/01/16 05:28:39;;;;;;;10.18;4.30;;;;;;;7.69;100.00;102157.06;5104739;28;20329;-73
2022/01/16 05:31:05;;;;;;;9.75;4.28;;;;;;;7.51;100.00;102160.66;5102448;28;20155;-73
2022/01/16 05:33:31;;;;;;;8.27;4.10;;;;;;;7.46;100.00;102164.09;5101874;28;20028;-73
2022/01/16 05:35:57;;;;;;;11.32;3.97;;;;;;;7.52;100.00;102170.53;5106354;28;20042;-73
2022/01/16 05:38:22;;;;;;;9.82;4.13;;;;;;;7.67;100.00;102175.56;5102691;28;20024;-73
2022/01/16 05:40:48;;;;;;;14.68;3.97;;;;;;;7.57;100.00;102181.56;5088404;28;20028;-72
2022/01/16 05:43:14;;;;;;;6.82;3.30;;;;;;;7.41;100.00;102182.19;5090828;28;20047;-72
2022/01/16 05:45:39;;;;;;;7.97;3.25;;;;;;;7.58;100.00;102180.53;5082190;28;20100;-73
2022/01/16 05:48:05;;;;;;;8.07;3.33;;;;;;;7.62;100.00;102184.44;5081486;28;20517;-72
2022/01/16 05:50:31;;;;;;;5.18;2.80;;;;;;;7.73;100.00;102189.13;5081427;28;20036;-72
2022/01/16 05:53:00;;;;;;;6.15;3.05;;;;;;;7.59;100.00;102186.81;5084825;28;20036;-73
2022/01/16 05:55:29;;;;;;;5.47;3.08;;;;;;;7.60;100.00;102186.59;5083245;28;20032;-72
2022/01/16 05:57:54;;;;;;;6.78;3.42;;;;;;;8.04;100.00;102189.16;5085790;28;20024;-71
2022/01/16 06:00:21;;;;;;;5.38;2.90;;;;;;;7.83;100.00;102190.50;5083473;28;20036;-72
2022/01/16 06:02:46;;;;;;;5.07;3.17;;;;;;;7.75;100.00;102182.63;5081108;28;20106;-73
2022/01/16 06:05:12;;;;;;;5.25;3.17;;;;;;;7.46;100.00;102179.63;5082139;28;20035;-74
2022/01/16 06:07:44;;;;;;;5.32;2.83;;;;;;;7.70;100.00;102189.59;5085429;28;20028;-72
2022/01/16 06:10:10;;;;;;;4.68;3.15;;;;;;;7.66;100.00;102169.28;5085960;28;20036;-72
2022/01/16 06:12:35;;;;;;;8.23;3.08;;;;;;;7.60;100.00;102192.03;5084078;28;20218;-71
2022/01/16 06:15:00;;;;;;;3.97;2.55;;;;;;;7.47;100.00;102179.38;5085762;28;20432;-72
2022/01/16 06:17:26;;;;;;;5.15;3.20;;;;;;;7.58;100.00;102183.25;5063994;28;20448;-72
2022/01/16 06:19:51;;;;;;;4.45;3.00;;;;;;;7.60;100.00;102181.13;5084213;28;20032;-73
2022/01/16 06:22:17;;;;;;;5.22;3.25;;;;;;;7.66;100.00;102185.66;5068188;28;20125;-73
2022/01/16 06:24:42;;;;;;;8.00;3.45;;;;;;;7.84;100.00;102183.97;5066422;28;20456;-73
2022/01/16 06:27:08;;;;;;;10.27;3.10;;;;;;;7.86;100.00;102184.56;5067016;28;20475;-72
2022/01/16 06:29:33;;;;;;;5.07;3.13;;;;;;;7.79;100.00;102187.41;5086460;28;20493;-72
2022/01/16 06:31:58;;;;;;;6.32;3.42;;;;;;;7.72;100.00;102184.75;5081756;28;20028;-74
2022/01/16 06:34:25;;;;;;;8.73;4.03;;;;;;;7.75;100.00;102197.09;5091266;28;20028;-72
2022/01/16 06:36:51;;;;;;;6.22;3.60;;;;;;;7.98;100.00;102195.53;5070358;28;20032;-73
2022/01/16 06:39:16;;;;;;;7.07;4.43;;;;;;;8.00;100.00;102197.00;5087047;28;20039;-72
2022/01/16 06:41:41;;;;;;;7.57;4.72;;;;;;;7.73;100.00;102210.16;5083783;28;20028;-73
2022/01/16 06:44:07;;;;;;;11.13;5.30;;;;;;;7.94;100.00;102208.00;5084277;28;20032;-73
2022/01/16 06:46:33;;;;;;;10.50;6.20;;;;;;;7.69;100.00;102219.84;5083638;28;20024;-73
2022/01/16 06:48:59;;;;;;;12.10;5.57;;;;;;;7.90;100.00;102216.66;5094379;28;20112;-72
2022/01/16 06:51:26;;;;;;;10.40;6.07;;;;;;;7.79;100.00;102222.03;5084345;28;20103;-73
2022/01/16 06:53:53;;;;;;;12.05;6.10;;;;;;;7.94;100.00;102224.41;5084397;28;20158;-72
2022/01/16 06:56:20;;;;;;;11.93;6.40;;;;;;;7.63;100.00;102234.44;5084109;28;20363;-72
2022/01/16 06:58:46;;;;;;;9.40;5.95;;;;;;;7.73;100.00;102235.53;5064754;28;20387;-73
2022/01/16 07:01:13;;;;;;;11.02;6.07;;;;;;;7.61;100.00;102242.84;5092177;28;20213;-73
2022/01/16 07:03:39;;;;;;;8.27;5.47;;;;;;;7.70;100.00;102236.00;5087949;28;20036;-73
2022/01/16 07:06:05;;;;;;;11.50;5.78;;;;;;;7.86;100.00;102237.28;5084604;28;20036;-72
2022/01/16 07:08:30;;;;;;;9.13;5.75;;;;;;;7.75;100.00;102240.78;5070431;28;20103;-72
2022/01/16 07:10:57;;;;;;;9.95;5.43;;;;;;;7.79;100.00;102244.72;5103181;28;20067;-72
2022/01/16 07:13:24;;;;;;;16.52;6.60;;;;;;;7.91;100.00;102250.25;5105574;28;20032;-73
2022/01/16 07:15:51;;;;;;;11.10;6.15;;;;;;;7.81;100.00;102258.16;5104090;28;20039;-72
2022/01/16 07:18:17;;;;;;;11.98;6.00;;;;;;;7.73;100.00;102262.84;5107783;28;20164;-72
2022/01/16 07:20:46;;;;;;;12.18;6.45;;;;;;;7.67;100.00;102266.50;5096589;28;20047;-72
2022/01/16 07:23:16;;;;;;;14.95;6.70;;;;;;;7.74;100.00;102277.34;5088075;28;20051;-73
2022/01/16 07:25:43;;;;;;;11.38;5.93;;;;;;;7.87;100.00;102273.59;5101723;28;20026;-73
2022/01/16 07:28:08;;;;;;;15.93;6.40;;;;;;;7.80;100.00;102290.06;5107247;28;20028;-72
2022/01/16 07:30:36;;;;;;;13.35;7.55;;;;;;;7.98;100.00;102291.97;5105155;28;20080;-74
2022/01/16 07:33:05;;;;;;;11.27;6.63;;;;;;;7.93;100.00;102283.63;5104798;28;20034;-72
2022/01/16 07:35:32;;;;;;;15.00;6.15;;;;;;;7.89;100.00;102287.88;5082345;28;20032;-72
2022/01/16 07:37:58;;;;;;;13.63;6.93;;;;;;;7.62;100.00;102282.72;5083398;28;20028;-73
2022/01/16 07:40:25;;;;;;;14.75;6.90;;;;;;;8.00;100.00;102295.31;5068211;28;20076;-73
2022/01/16 07:42:51;;;;;;;15.18;6.75;;;;;;;7.82;100.00;102300.75;5084194;28;20157;-72
2022/01/16 07:45:17;;;;;;;11.80;6.57;;;;;;;7.93;100.00;102310.94;5092066;28;20062;-72
2022/01/16 07:47:42;;;;;;;14.50;7.00;;;;;;;7.93;100.00;102300.00;5102506;28;20043;-72
2022/01/16 07:50:09;;;;;;;16.52;6.95;;;;;;;8.03;100.00;102289.38;5103972;28;20097;-72
2022/01/16 07:52:35;;;;;;;15.70;7.10;;;;;;;7.75;100.00;102300.84;5088337;28;20035;-72
2022/01/16 07:55:00;;;;;;;13.30;6.88;;;;;;;7.85;100.00;102305.78;5108141;28;20072;-72
2022/01/16 07:57:26;;;;;;;15.43;6.65;;;;;;;7.99;100.00;102315.47;5107044;28;20144;-72
2022/01/16 07:59:51;;;;;;;17.30;6.97;;;;;;;8.05;100.00;102330.09;5105429;28;20428;-72
2022/01/16 08:02:17;;;;;;;16.75;7.38;;;;;;;7.98;100.00;102319.25;5104423;28;20495;-74
2022/01/16 08:04:43;;;;;;;15.75;7.25;;;;;;;7.83;100.00;102319.66;5101509;28;20030;-71
2022/01/16 08:07:10;;;;;;;19.25;8.02;;;;;;;8.03;100.00;102310.41;5106754;28;20358;-72
2022/01/16 08:09:37;;;;;;;19.25;7.85;;;;;;;7.91;100.00;102313.88;5104987;28;20035;-71
2022/01/16 08:12:06;;;;;;;13.48;7.70;;;;;;;7.95;100.00;102313.44;5106028;28;20027;-72
2022/01/16 08:14:34;;;;;;;18.40;7.28;;;;;;;8.08;100.00;102308.66;5105402;28;20038;-72
2022/01/16 08:17:00;;;;;;;19.38;8.02;;;;;;;8.11;100.00;102304.63;5102266;28;20031;-78
2022/01/16 08:19:27;;;;;;;15.93;6.75;;;;;;;7.91;100.00;102302.97;5091145;28;20035;-76
2022/01/16 08:21:52;;;;;;;16.00;6.53;;;;;;;7.90;100.00;102301.31;5084520;28;20365;-80
2022/01/16 08:24:18;;;;;;;14.48;7.20;;;;;;;8.15;100.00;102299.53;5100423;28;20036;-80
2022/01/16 08:26:44;;;;;;;15.18;8.00;;;;;;;8.17;100.00;102300.16;5104840;28;20127;-80
2022/01/16 08:29:09;;;;;;;17.52;7.25;;;;;;;7.88;100.00;102294.41;5100736;28;20019;-86
2022/01/16 08:31:37;;;;;;;13.38;7.75;;;;;;;7.76;100.00;102299.78;5108060;28;20027;-80
2022/01/16 08:34:03;;;;;;;16.20;7.43;;;;;;;7.82;100.00;102292.56;5082841;28;20036;-81
2022/01/16 08:36:28;;;;;;;18.88;7.97;;;;;;;8.00;100.00;102295.31;5079280;28;20504;-80
2022/01/16 08:38:54;;;;;;;21.83;8.05;;;;;;;8.09;100.00;102293.91;5090803;28;20262;-79
2022/01/16 08:41:21;;;;;;;15.65;7.75;;;;;;;7.99;100.00;102301.81;5104034;28;20034;-79
2022/01/16 08:43:47;;;;;;;14.55;7.43;;;;;;;8.01;100.00;102294.22;5096169;28;20023;-78
2022/01/16 08:46:14;;;;;;;16.42;7.97;;;;;;;7.95;100.00;102300.59;5099644;28;20048;-80
2022/01/16 08:48:40;;;;;;;18.98;8.15;;;;;;;8.10;100.00;102306.53;5081930;28;20593;-79
2022/01/16 08:51:05;;;;;;;17.48;8.20;;;;;;;8.09;100.00;102310.31;5086778;28;20028;-78
2022/01/16 08:53:32;;;;;;;16.23;7.45;;;;;;;8.15;100.00;102321.38;5081756;28;20020;-78
2022/01/16 08:55:58;;;;;;;17.25;7.20;;;;;;;7.80;100.00;102332.94;5103865;28;20807;-82
2022/01/16 08:58:24;;;;;;;17.30;7.57;;;;;;;7.89;100.00;102334.31;5107037;28;20043;-79
2022/01/16 09:00:51;;;;;;;17.60;8.38;;;;;;;8.12;100.00;102332.75;5103475;28;20138;-78
2022/01/16 09:03:21;;;;;;;20.42;8.20;;;;;;;8.03;100.00;102332.25;5095784;28;20032;-79
2022/01/16 09:05:47;;;;;;;19.60;8.13;;;;;;;8.02;100.00;102330.59;5091113;28;20020;-78
2022/01/16 09:08:13;;;;;;;22.42;8.70;;;;;;;8.09;100.00;102336.81;5073839;28;20034;-79
2022/01/16 09:10:41;;;;;;;17.17;8.60;;;;;;;7.81;100.00;102335.44;5088433;28;20039;-79
2022/01/16 09:13:15;;;;;;;18.65;8.73;;;;;;;8.18;100.00;102331.84;5090359;28;20390;-78
2022/01/16 09:15:49;;;;;;;23.70;10.25;;;;;;;8.17;100.00;102332.94;5082784;28;20131;-77
2022/01/16 09:18:17;;;;;;;18.75;8.10;;;;;;;8.09;100.00;102332.16;5088217;28;20114;-81
2022/01/16 09:20:46;;;;;;;17.45;7.63;;;;;;;8.06;100.00;102343.53;5061978;28;20028;-80
2022/01/16 09:23:12;;;;;;;18.13;7.97;;;;;;;8.17;100.00;102341.13;5091981;28;20388;-82
2022/01/16 09:25:40;;;;;;;14.60;8.25;;;;;;;8.17;100.00;102355.63;5081943;28;20024;-80
2022/01/16 09:28:05;;;;;;;26.13;13.00;;;;;;;8.17;100.00;102360.25;5086021;28;20031;-80
2022/01/16 09:30:32;;;;;;;35.28;19.35;;;;;;;8.28;100.00;102356.75;5093527;28;20028;-82
2022/01/16 09:32:58;;;;;;;23.80;12.77;;;;;;;8.28;100.00;102362.22;5098333;28;20115;-83
2022/01/16 09:35:23;;;;;;;35.88;18.33;;;;;;;8.06;100.00;102367.31;5085641;28;20119;-80
2022/01/16 09:37:50;;;;;;;60.42;27.02;;;;;;;8.05;100.00;102362.88;5081858;28;20028;-82
2022/01/16 09:40:20;;;;;;;23.27;12.05;;;;;;;8.31;100.00;102366.38;5101319;28;20038;-81
2022/01/16 09:42:47;;;;;;;26.38;11.82;;;;;;;8.27;100.00;102368.75;5111401;28;20485;-81
2022/01/16 09:45:16;;;;;;;17.50;9.73;;;;;;;8.06;100.00;102370.03;5098991;28;20024;-83
2022/01/16 09:47:45;;;;;;;35.17;14.80;;;;;;;8.38;100.00;102376.16;5089799;28;20131;-83
2022/01/16 09:50:13;;;;;;;22.75;10.32;;;;;;;8.24;100.00;102375.47;5092990;28;20299;-81
2022/01/16 09:52:42;;;;;;;20.30;9.18;;;;;;;8.31;100.00;102383.59;5097743;28;20028;-82
2022/01/16 09:55:09;;;;;;;38.95;15.63;;;;;;;8.30;100.00;102381.94;5099756;28;20024;-82
2022/01/16 09:57:35;;;;;;;21.77;10.07;;;;;;;8.40;100.00;102374.03;5111997;28;20047;-83
2022/01/16 10:00:01;;;;;;;28.92;12.55;;;;;;;8.67;100.00;102389.28;5103151;28;20034;-82
2022/01/16 10:02:27;;;;;;;16.27;7.15;;;;;;;8.63;100.00;102381.53;5088847;28;20051;-82
2022/01/16 10:04:53;;;;;;;26.02;11.65;;;;;;;8.70;100.00;102391.56;5078852;28;20038;-82
2022/01/16 10:07:19;;;;;;;15.38;7.43;;;;;;;8.50;100.00;102387.19;5098045;28;20032;-82
2022/01/16 10:10:07;;;;;;;18.08;8.70;;;;;;;8.60;100.00;102392.09;5090424;28;20150;-84
2022/01/16 10:12:34;;;;;;;17.98;7.70;;;;;;;8.44;100.00;102410.81;5097836;28;20067;-82
2022/01/16 10:15:15;;;;;;;19.10;9.75;;;;;;;8.40;100.00;102406.00;5098929;28;20047;-82
2022/01/16 10:17:50;;;;;;;22.05;10.48;;;;;;;8.40;100.00;102404.09;5097476;28;20075;-82
2022/01/16 10:20:17;;;;;;;23.05;12.48;;;;;;;8.43;100.00;102403.66;5105534;28;20058;-82
2022/01/16 10:22:54;;;;;;;29.10;15.48;;;;;;;8.42;100.00;102410.16;5105223;28;20040;-83
2022/01/16 10:25:44;;;;;;;34.95;18.05;;;;;;;8.10;100.00;102404.88;5094450;28;20124;-82
2022/01/16 10:28:19;;;;;;;33.72;20.27;;;;;;;8.26;100.00;102413.50;5096786;28;20031;-83
2022/01/16 10:30:52;;;;;;;35.17;19.65;;;;;;;8.38;100.00;102413.56;5108878;28;20037;-83
2022/01/16 10:33:24;;;;;;;40.15;20.13;;;;;;;8.16;100.00;102421.41;5096036;28;20016;-82
2022/01/16 10:35:53;;;;;;;41.25;21.05;;;;;;;8.24;100.00;102421.09;5099487;28;20111;-81
2022/01/16 10:38:25;;;;;;;39.50;21.27;;;;;;;8.00;100.00;102411.91;5107197;28;20069;-83
2022/01/16 10:40:57;;;;;;;37.38;20.55;;;;;;;8.08;100.00;102412.47;5089320;28;20039;-82
2022/01/16 10:43:46;;;;;;;44.33;23.03;;;;;;;7.84;100.00;102402.44;5095252;28;20623;-82
2022/01/16 10:46:13;;;;;;;47.08;24.15;;;;;;;8.20;100.00;102406.22;5078866;28;20244;-83
2022/01/16 10:48:40;;;;;;;52.55;25.17;;;;;;;8.13;100.00;102405.47;5083615;28;20032;-84
2022/01/16 10:51:19;;;;;;;50.10;24.85;;;;;;;8.23;100.00;102400.28;5081752;28;20365;-82
2022/01/16 10:53:44;;;;;;;54.78;27.42;;;;;;;8.02;100.00;102404.34;5084733;28;20016;-83
2022/01/16 10:56:10;;;;;;;63.75;28.23;;;;;;;7.95;100.00;102401.66;5094189;28;20262;-82
2022/01/16 10:58:35;;;;;;;54.03;27.05;;;;;;;8.26;100.00;102402.56;5087143;28;20024;-82
2022/01/16 11:01:03;;;;;;;60.35;26.40;;;;;;;8.50;100.00;102402.75;5103113;28;20118;-81
2022/01/16 11:03:38;;;;;;;55.15;25.42;;;;;;;8.40;100.00;102408.72;5083036;28;20500;-81
2022/01/16 11:06:04;;;;;;;51.83;27.40;;;;;;;8.42;100.00;102407.41;5093781;28;20024;-82
2022/01/16 11:08:29;;;;;;;52.03;27.05;;;;;;;8.72;100.00;102400.34;5099861;28;20493;-81
2022/01/16 11:10:56;;;;;;;57.22;26.95;;;;;;;8.89;100.00;102411.50;5101634;28;20032;-81
2022/01/16 11:13:27;;;;;;;50.55;26.13;;;;;;;8.69;100.00;102418.06;5104796;28;20061;-82
2022/01/16 11:15:55;;;;;;;51.08;24.73;;;;;;;8.82;100.00;102417.88;5084917;28;20046;-83
2022/01/16 11:18:25;;;;;;;48.75;23.95;;;;;;;8.91;100.00;102415.66;5100118;28;20080;-83
2022/01/16 11:23:46;;;;;;;49.38;22.80;;;;;;;8.78;100.00;102411.19;5107501;28;20051;-83
2022/01/16 11:26:12;;;;;;;42.25;21.17;;;;;;;8.61;100.00;102416.47;5095774;28;20364;-81
2022/01/16 11:28:38;;;;;;;43.05;22.00;;;;;;;8.76;100.00;102404.31;5085288;28;20250;-82
2022/01/16 11:31:09;;;;;;;40.42;20.50;;;;;;;8.89;100.00;102406.03;5086081;28;20428;-77
2022/01/16 11:33:36;;;;;;;34.55;18.00;;;;;;;8.74;100.00;102399.06;5096305;28;20020;-84
2022/01/16 11:36:14;;;;;;;35.75;16.55;;;;;;;8.78;100.00;102403.00;5097361;28;20106;-79
2022/01/16 11:38:41;;;;;;;35.13;17.58;;;;;;;9.11;100.00;102409.03;5082037;28;20023;-84
2022/01/16 11:41:15;;;;;;;30.73;14.43;;;;;;;8.92;100.00;102409.13;5091223;28;20028;-86
2022/01/16 11:43:46;;;;;;;28.80;14.82;;;;;;;9.09;100.00;102403.81;5093206;28;20469;-85
2022/01/16 11:46:20;;;;;;;27.30;12.23;;;;;;;8.88;100.00;102407.06;5090734;28;20542;-85
2022/01/16 11:48:49;;;;;;;25.80;11.27;;;;;;;9.06;100.00;102407.00;5097698;28;20034;-85
2022/01/16 11:53:58;;;;;;;13.90;7.63;;;;;;;9.08;100.00;102414.97;5090757;28;20031;-84
2022/01/16 11:56:39;;;;;;;16.50;6.38;;;;;;;9.04;100.00;102406.41;5085436;28;20478;-84
2022/01/16 11:59:21;;;;;;;15.05;6.45;;;;;;;8.99;100.00;102401.63;5094149;28;20504;-87
2022/01/16 12:02:09;;;;;;;15.52;5.75;;;;;;;9.01;100.00;102406.88;5094998;28;20034;-85
2022/01/16 12:04:36;;;;;;;10.50;5.40;;;;;;;9.09;100.00;102397.50;5108123;27;20024;-81